CW9778 Bellingham WA US current weather conditions

sailwx.info

Wind from 186 at 1 knots gusting 3

Air temperature 16.1° C
Dewpoint 16.1° C

Last reported at 2020-Sep-18 07:00 UTC.
Time now 2020-Sep-18 07:43 UTC

Location: N 48°47' W 122°34'.
View on Google Maps.

See reports from other nearby stations

  
Tides and Currents Weather Stations Pressure Air Temp Water Temp Dewpoint Dewpoint Depression Visibility Wind Speed Wind Dir Waves Ship Positions
date/time (UTC)wind fromknots sea level pressurealtimeterstation pressurevisibilityair tempwater tempwave heightnotes
2020-Sep-18 07:00 186 1 gusting 3 16.1
2020-Sep-18 06:45 186 1 gusting 2 16.1
2020-Sep-18 06:32 184 16.1
2020-Sep-18 06:16 184 1 gusting 2 16.1
2020-Sep-18 06:01 173 0 gusting 2 16.1
2020-Sep-18 05:46 182 1 gusting 4 16.1
2020-Sep-18 05:31 192 4 gusting 6 16.1
2020-Sep-18 05:15 178 6 gusting 9 16.1
2020-Sep-18 05:00 196 5 gusting 6 16.7
2020-Sep-18 04:45 189 4 gusting 6 16.7
2020-Sep-18 04:30 214 17.2
2020-Sep-18 04:15 057 17.2
2020-Sep-18 04:00 057 17.8
2020-Sep-18 03:31 057 17.8
2020-Sep-18 03:16 312 17.8
2020-Sep-18 03:01 312 17.8
2020-Sep-18 02:45 312 18.3
2020-Sep-18 02:30 312 18.9
2020-Sep-18 02:15 312 19.4
2020-Sep-18 02:00 312 19.4
2020-Sep-18 01:45 312 20.0
2020-Sep-18 01:31 312 1 gusting 3 20.6
2020-Sep-18 01:16 309 1 gusting 3 20.6
2020-Sep-18 01:00 300 0 gusting 4 21.1
2020-Sep-18 00:45 287 21.7
2020-Sep-18 00:30 291 0 gusting 4 21.7
2020-Sep-18 00:15 276 0 gusting 2 22.2
2020-Sep-18 00:00 263 1 gusting 5 21.7
2020-Sep-17 23:45 265 1 gusting 5 22.2
2020-Sep-17 23:30 268 1 gusting 4 22.8
2020-Sep-17 23:16 311 2 gusting 4 23.3
2020-Sep-17 23:01 355 1 gusting 5 23.3
2020-Sep-17 22:46 355 1 gusting 5 22.8
2020-Sep-17 22:32 309 1 gusting 6 22.8
2020-Sep-17 22:16 293 3 gusting 6 22.8
2020-Sep-17 22:00 344 3 gusting 6 22.8
2020-Sep-17 21:45 292 4 gusting 8 22.2
2020-Sep-17 21:30 298 4 gusting 7 22.8
2020-Sep-17 21:15 338 2 gusting 6 22.2
2020-Sep-17 21:00 325 4 gusting 6 22.2
2020-Sep-17 20:46 282 4 gusting 7 21.7
2020-Sep-17 20:31 338 3 gusting 6 21.7
2020-Sep-17 20:15 328 2 gusting 7 21.7
2020-Sep-17 20:00 269 5 gusting 7 21.7
2020-Sep-17 19:46 304 3 gusting 6 22.8
2020-Sep-17 19:32 351 0 gusting 3 22.8
2020-Sep-17 19:16 011 1 gusting 5 23.3
2020-Sep-17 19:00 339 1 gusting 5 22.8
2020-Sep-17 18:45 329 0 gusting 3 22.8
2020-Sep-17 18:32 347 1 gusting 6 22.2
2020-Sep-17 18:16 321 2 gusting 5 21.7
2020-Sep-17 18:04 320 1 gusting 4 20.6
2020-Sep-17 17:47 319 1 gusting 4 19.4
2020-Sep-17 17:31 349 0 gusting 3 18.9
2020-Sep-17 17:16 355 1 gusting 2 18.9
2020-Sep-17 17:00 350 0 gusting 2 18.3
2020-Sep-17 16:45 351 0 gusting 2 17.8
2020-Sep-17 16:30 350 17.2
2020-Sep-17 16:16 013 17.8
2020-Sep-17 16:02 013 17.2
2020-Sep-17 15:46 013 16.7
2020-Sep-17 15:30 013 16.1
2020-Sep-17 15:17 013 16.1
2020-Sep-17 15:02 013 15.6
2020-Sep-17 14:47 013 15.6
2020-Sep-17 14:31 118 16.1
2020-Sep-17 14:16 118 16.1
2020-Sep-17 14:01 118 16.1
2020-Sep-17 13:46 118 16.1
2020-Sep-17 13:30 118 16.7
2020-Sep-17 13:15 118 16.7
2020-Sep-17 13:00 150 16.7
2020-Sep-17 12:45 150 16.7
2020-Sep-17 12:32 150 16.7
2020-Sep-17 12:16 051 16.7
2020-Sep-17 12:02 051 17.2
2020-Sep-17 11:47 051 17.2
2020-Sep-17 11:31 051 17.2
2020-Sep-17 11:15 051 17.2
2020-Sep-17 11:00 051 17.2
2020-Sep-17 10:45 086 17.8
2020-Sep-17 10:30 086 17.8
2020-Sep-17 10:15 109 17.8
2020-Sep-17 10:02 109 17.8
2020-Sep-17 09:46 093 17.8
2020-Sep-17 09:32 060 1 gusting 3 17.2
2020-Sep-17 09:16 005 17.2
2020-Sep-17 09:01 005 2 gusting 6 17.2
2020-Sep-17 08:45 005 3 gusting 7 17.2
2020-Sep-17 08:30 017 3 gusting 6 17.2
2020-Sep-17 08:18 017 2 gusting 6 17.2
2020-Sep-17 08:02 355 2 gusting 5 16.7
2020-Sep-17 07:46 042 1 gusting 2 16.7
2020-Sep-17 07:32 042 1 gusting 2 16.7
2020-Sep-17 07:16 099 0 gusting 5 17.2
2020-Sep-17 07:00 111 17.2
2020-Sep-17 06:45 123 17.2
2020-Sep-17 06:30 123 16.7
2020-Sep-17 06:16 158 17.8
2020-Sep-17 06:01 158 17.8
2020-Sep-17 05:45 173 2 gusting 4 17.8
2020-Sep-17 05:30 172 1 gusting 4 17.8
2020-Sep-17 05:15 153 1 gusting 4 17.8
2020-Sep-17 05:00 187 3 gusting 6 17.8
2020-Sep-17 04:45 189 4 gusting 6 17.8
2020-Sep-17 04:30 167 2 gusting 7 17.2
2020-Sep-17 04:15 230 4 gusting 6 17.2
2020-Sep-17 04:02 201 3 gusting 6 17.2
2020-Sep-17 03:46 211 2 gusting 4 16.7
2020-Sep-17 03:30 200 1 gusting 4 17.2
2020-Sep-17 03:16 225 16.7
2020-Sep-17 03:01 197 16.7
2020-Sep-17 02:46 197 0 gusting 4 16.7
2020-Sep-17 02:30 201 1 gusting 6 16.7
2020-Sep-17 02:15 199 1 gusting 6 16.7
2020-Sep-17 02:00 186 4 gusting 7 17.2
2020-Sep-17 01:45 190 5 gusting 7 17.2
2020-Sep-17 01:31 191 2 gusting 5 17.2
2020-Sep-17 01:17 202 1 gusting 4 17.8
2020-Sep-17 01:01 182 4 gusting 6 17.8
2020-Sep-17 00:46 175 1 gusting 3 18.3
2020-Sep-17 00:31 175 1 gusting 3 18.3
2020-Sep-17 00:15 183 2 gusting 4 19.4
2020-Sep-17 00:01 233 2 gusting 6 21.1
2020-Sep-16 23:45 273 21.7
2020-Sep-16 23:30 339 1 gusting 5 21.7
2020-Sep-16 23:17 355 1 gusting 4 21.7
2020-Sep-16 23:02 333 0 gusting 5 21.7
2020-Sep-16 22:46 314 1 gusting 5 21.1
2020-Sep-16 22:32 290 2 gusting 4 21.1
2020-Sep-16 22:16 230 3 gusting 6 21.1
2020-Sep-16 22:00 265 2 gusting 4 21.7
2020-Sep-16 21:46 244 2 gusting 4 21.1
2020-Sep-16 21:30 213 1 gusting 4 20.6
2020-Sep-16 21:15 221 0 gusting 5 20.0
2020-Sep-16 21:02 244 2 gusting 4 20.6
2020-Sep-16 20:46 268 0 gusting 3 20.0
2020-Sep-16 20:32 259 1 gusting 4 19.4
2020-Sep-16 20:16 275 1 gusting 5 18.9
2020-Sep-16 20:01 304 2 gusting 8 18.3
2020-Sep-16 19:45 231 4 gusting 7 18.3
2020-Sep-16 19:30 227 2 gusting 5 18.9
2020-Sep-16 19:15 229 2 gusting 3 18.3
2020-Sep-16 19:02 238 1 gusting 3 17.2
2020-Sep-16 18:48 336 18.3
2020-Sep-16 18:31 284 17.8
2020-Sep-16 18:16 341 0 gusting 3 17.2
2020-Sep-16 18:01 303 17.2
2020-Sep-16 17:46 295 16.7
2020-Sep-16 17:31 308 16.1
2020-Sep-16 17:15 308 16.1
2020-Sep-16 17:00 350 16.7
2020-Sep-16 16:45 302 1 gusting 3 16.1
2020-Sep-16 16:31 331 16.1
2020-Sep-16 16:17 355 16.1
2020-Sep-16 16:01 355 15.6
2020-Sep-16 15:46 355 15.6
2020-Sep-16 15:30 355 15.0
2020-Sep-16 15:16 355 15.0
2020-Sep-16 15:00 355 0 gusting 4 15.0
2020-Sep-16 14:45 346 0 gusting 3 15.0
2020-Sep-16 14:31 311 15.0
2020-Sep-16 14:17 338 14.4
2020-Sep-16 14:02 348 14.4
2020-Sep-16 13:47 348 14.4
2020-Sep-16 13:31 336 14.4
2020-Sep-16 13:16 336 14.4
2020-Sep-16 13:01 317 14.4
2020-Sep-16 12:46 317 14.4
2020-Sep-16 12:30 317 15.0
2020-Sep-16 12:15 317 15.0
2020-Sep-16 12:00 296 15.0
2020-Sep-16 11:46 345 15.0
2020-Sep-16 11:31 345 14.4
2020-Sep-16 11:17 345 15.0
2020-Sep-16 11:02 345 15.6
2020-Sep-16 10:46 345 15.0
2020-Sep-16 10:33 345 15.6
2020-Sep-16 10:15 345 15.6
2020-Sep-16 10:00 345 15.6
2020-Sep-16 09:46 345 15.6
2020-Sep-16 09:31 355 1 gusting 3 15.6
2020-Sep-16 09:15 319 15.6
2020-Sep-16 09:00 316 15.6
2020-Sep-16 08:46 316 15.6
2020-Sep-16 08:30 317 15.6
2020-Sep-16 08:15 278 1 gusting 3 16.1
2020-Sep-16 08:00 296 0 gusting 3 16.1
2020-Sep-16 07:45 336 1 gusting 4 16.1
2020-Sep-16 07:32 328 1 gusting 5 16.1
2020-Sep-16 07:16 331 3 gusting 6 16.7
2020-Sep-16 07:00 336 2 gusting 6 16.7